Time;durP1;ratioP1;P1;durP2;ratioP2;P2;SDS_P1;SDS_P2;PMS_P1;PMS_P2;Temp;Humidity;BMP_temperature;BMP_pressure;BME280_temperature;BME280_humidity;BME280_pressure;Samples;Min_cycle;Max_cycle;Signal;HPM_P1;HPM_P2
2022/09/30 00:00:21;;;;;;;20.03;15.53;;;;;;;18.81;100.00;-18268.22;5074695;28;20215;-65
2022/09/30 00:02:48;;;;;;;16.33;14.60;;;;;;;18.94;100.00;-18271.31;5074570;28;20192;-66
2022/09/30 00:05:16;;;;;;;28.07;16.53;;;;;;;18.97;100.00;-18272.16;5074665;28;20207;-65
2022/09/30 00:07:43;;;;;;;30.70;16.17;;;;;;;18.85;100.00;-18269.19;5074340;28;20181;-66
2022/09/30 00:10:12;;;;;;;20.67;16.40;;;;;;;18.86;100.00;-18269.53;5074820;28;20635;-64
2022/09/30 00:12:39;;;;;;;34.63;16.70;;;;;;;18.79;100.00;-18267.75;5074170;28;20212;-65
2022/09/30 00:15:07;;;;;;;41.10;17.50;;;;;;;18.68;100.00;-18265.34;5074074;28;20196;-65
2022/09/30 00:17:34;;;;;;;37.40;17.40;;;;;;;18.70;100.00;-18265.72;5074717;28;20554;-66
2022/09/30 00:20:02;;;;;;;24.63;16.40;;;;;;;18.69;100.00;-18265.59;5074157;28;20240;-65
2022/09/30 00:22:30;;;;;;;26.80;16.63;;;;;;;18.73;100.00;-18266.44;5074403;28;20698;-66
2022/09/30 00:24:57;;;;;;;20.00;15.80;;;;;;;18.62;100.00;-18263.91;5073339;28;20559;-65
2022/09/30 00:27:24;;;;;;;16.80;15.07;;;;;;;18.31;100.00;-18256.50;5075015;28;20563;-65
2022/09/30 00:29:51;;;;;;;18.63;16.53;;;;;;;18.51;100.00;-18261.28;5074255;28;20650;-66
2022/09/30 00:32:18;;;;;;;21.07;16.57;;;;;;;18.47;100.00;-18260.31;5074413;28;20189;-66
2022/09/30 00:34:45;;;;;;;25.60;16.50;;;;;;;18.57;100.00;-18262.72;5074720;28;20200;-65
2022/09/30 00:37:14;;;;;;;19.30;16.67;;;;;;;18.28;100.00;-18255.78;5074461;28;20185;-65
2022/09/30 00:39:42;;;;;;;19.67;17.60;;;;;;;18.50;100.00;-18260.94;5074465;28;20246;-65
2022/09/30 00:42:13;;;;;;;24.67;17.23;;;;;;;18.42;100.00;-18259.13;5074026;28;20629;-65
2022/09/30 00:44:50;;;;;;;26.03;16.73;;;;;;;18.22;100.00;-18254.34;5073552;28;20185;-64
2022/09/30 00:47:44;;;;;;;19.07;16.73;;;;;;;18.13;100.00;-18252.19;5073759;28;20245;-66
2022/09/30 00:50:20;;;;;;;27.37;16.83;;;;;;;18.05;100.00;-18250.41;5073759;28;20191;-65
2022/09/30 00:52:51;;;;;;;16.87;15.13;;;;;;;17.86;100.00;-18245.75;5073297;28;20276;-66
2022/09/30 00:55:27;;;;;;;21.70;16.30;;;;;;;17.89;100.00;-18246.59;5073486;28;20185;-64
2022/09/30 00:57:56;;;;;;;17.10;15.30;;;;;;;17.94;100.00;-18247.78;5074210;28;20203;-65
2022/09/30 01:00:23;;;;;;;20.87;16.47;;;;;;;17.86;100.00;-18245.88;5073731;28;20679;-64
2022/09/30 01:02:50;;;;;;;24.57;17.90;;;;;;;17.61;100.00;-18240.00;5055831;28;20188;-63
2022/09/30 01:05:17;;;;;;;35.07;18.60;;;;;;;17.99;100.00;-18248.97;5073586;28;20189;-65
2022/09/30 01:07:44;;;;;;;25.97;20.30;;;;;;;18.01;100.00;-18249.31;5073529;28;20560;-64
2022/09/30 01:10:11;;;;;;;26.67;18.63;;;;;;;17.99;100.00;-18248.84;5073322;28;20185;-64
2022/09/30 01:12:40;;;;;;;23.23;17.90;;;;;;;17.70;100.00;-18242.16;5073313;28;20181;-64
2022/09/30 01:15:08;;;;;;;28.27;17.60;;;;;;;17.78;100.00;-18244.06;5073457;28;20639;-65
2022/09/30 01:17:48;;;;;;;25.40;16.07;;;;;;;17.69;100.00;-18241.78;5073346;28;20207;-64
2022/09/30 01:21:03;;;;;;;23.23;15.67;;;;;;;17.19;100.00;-18229.94;5053434;28;20212;-65
2022/09/30 01:24:24;;;;;;;30.47;16.53;;;;;;;17.11;100.00;-18228.03;4972221;28;20196;-64
2022/09/30 01:27:05;;;;;;;25.23;15.97;;;;;;;17.03;100.00;-18226.09;5011412;28;20191;-64
2022/09/30 01:30:06;;;;;;;26.73;16.90;;;;;;;17.24;100.00;-18231.13;5053011;28;20587;-64
2022/09/30 01:32:55;;;;;;;27.07;17.53;;;;;;;17.30;100.00;-18232.56;5019778;28;20198;-64
2022/09/30 01:35:34;;;;;;;21.43;17.83;;;;;;;17.21;100.00;-18230.41;5049492;28;20276;-65
2022/09/30 01:38:12;;;;;;;17.80;16.03;;;;;;;16.88;100.00;-18222.75;5052814;28;20189;-65
2022/09/30 01:40:43;;;;;;;25.47;17.90;;;;;;;16.75;100.00;-18219.53;5052479;28;20205;-64
2022/09/30 01:43:18;;;;;;;22.63;16.93;;;;;;;17.15;100.00;-18228.97;5052938;28;20182;-64
2022/09/30 01:45:50;;;;;;;26.60;17.57;;;;;;;17.21;100.00;-18230.53;5052458;28;20654;-64
2022/09/30 01:48:23;;;;;;;21.10;17.43;;;;;;;17.25;100.00;-18231.38;5052797;28;20189;-64
2022/09/30 01:50:55;;;;;;;24.17;17.97;;;;;;;17.24;100.00;-18231.25;5052429;28;20185;-64
2022/09/30 01:53:31;;;;;;;34.43;18.37;;;;;;;17.27;100.00;-18231.84;5052607;28;20296;-65
2022/09/30 01:56:04;;;;;;;20.47;17.23;;;;;;;17.12;100.00;-18228.25;5052405;28;20195;-64
2022/09/30 01:58:40;;;;;;;18.03;16.17;;;;;;;16.86;100.00;-18222.28;5052475;28;20555;-64
2022/09/30 02:01:16;;;;;;;25.83;15.87;;;;;;;17.03;100.00;-18226.09;5052493;28;20207;-63
2022/09/30 02:03:48;;;;;;;22.83;17.33;;;;;;;17.04;100.00;-18226.34;5052229;28;20184;-64
2022/09/30 02:06:20;;;;;;;24.00;17.57;;;;;;;17.08;100.00;-18227.31;5052216;28;20196;-64
2022/09/30 02:08:54;;;;;;;20.93;18.27;;;;;;;17.03;100.00;-18226.09;5052209;28;20666;-65
2022/09/30 02:11:25;;;;;;;43.80;23.50;;;;;;;17.16;100.00;-18229.22;5051932;28;20193;-64
2022/09/30 02:13:56;;;;;;;47.43;25.03;;;;;;;17.25;100.00;-18231.38;5034734;28;20188;-64
2022/09/30 02:16:28;;;;;;;48.83;24.20;;;;;;;17.31;100.00;-18232.94;5051889;28;20185;-64
2022/09/30 02:19:02;;;;;;;58.33;24.13;;;;;;;17.35;100.00;-18233.78;5060980;28;20239;-64
2022/09/30 02:21:35;;;;;;;37.03;22.40;;;;;;;17.27;100.00;-18231.84;5072071;28;20291;-64
2022/09/30 02:24:07;;;;;;;26.47;20.17;;;;;;;17.25;100.00;-18231.38;5072143;28;20193;-65
2022/09/30 02:26:39;;;;;;;27.87;20.83;;;;;;;17.27;100.00;-18231.97;5072231;28;20551;-62
2022/09/30 02:29:09;;;;;;;27.80;20.23;;;;;;;17.31;100.00;-18232.94;5072391;28;20216;-64
2022/09/30 02:31:39;;;;;;;23.63;21.17;;;;;;;17.35;100.00;-18233.88;5072124;28;20191;-63
2022/09/30 02:34:12;;;;;;;36.60;21.93;;;;;;;17.31;100.00;-18232.81;5072033;28;20204;-64
2022/09/30 02:36:44;;;;;;;31.67;22.60;;;;;;;17.33;100.00;-18233.28;5071674;28;20275;-64
2022/09/30 02:39:16;;;;;;;24.53;21.77;;;;;;;17.45;100.00;-18236.16;5071694;28;20263;-65
2022/09/30 02:41:47;;;;;;;25.33;20.07;;;;;;;17.32;100.00;-18233.06;5071921;28;20583;-64
2022/09/30 02:44:18;;;;;;;30.87;19.33;;;;;;;17.17;100.00;-18229.47;5071688;28;20185;-65
2022/09/30 02:46:54;;;;;;;24.67;20.03;;;;;;;17.25;100.00;-18231.50;5071535;28;20195;-64
2022/09/30 02:49:31;;;;;;;22.37;19.30;;;;;;;17.21;100.00;-18230.53;5076276;28;20203;-65
2022/09/30 02:52:11;;;;;;;26.93;19.20;;;;;;;17.18;100.00;-18229.81;5078562;28;20184;-65
2022/09/30 02:54:48;;;;;;;21.70;19.40;;;;;;;17.22;100.00;-18230.66;5078329;28;20199;-64
2022/09/30 02:57:19;;;;;;;20.90;18.17;;;;;;;17.10;100.00;-18227.78;5078714;28;20188;-64
2022/09/30 02:59:47;;;;;;;23.20;19.07;;;;;;;17.15;100.00;-18228.97;5078101;28;20188;-64
2022/09/30 03:02:15;;;;;;;20.87;18.77;;;;;;;16.97;100.00;-18224.66;5078489;28;20678;-65
2022/09/30 03:04:45;;;;;;;27.43;17.87;;;;;;;17.24;100.00;-18231.13;5078448;28;20191;-64
2022/09/30 03:07:13;;;;;;;24.20;18.83;;;;;;;17.19;100.00;-18229.94;5078115;28;20189;-65
2022/09/30 03:09:40;;;;;;;23.17;18.00;;;;;;;16.84;100.00;-18221.78;5078014;28;20192;-63
2022/09/30 03:12:19;;;;;;;22.77;19.07;;;;;;;17.03;100.00;-18226.09;5078259;28;20188;-64
2022/09/30 03:15:06;;;;;;;43.67;20.40;;;;;;;17.09;100.00;-18227.66;5078175;28;20188;-64
2022/09/30 03:17:50;;;;;;;29.33;18.53;;;;;;;17.11;100.00;-18228.13;5077950;28;20191;-65
2022/09/30 03:20:33;;;;;;;36.33;19.63;;;;;;;17.11;100.00;-18228.03;5078010;28;20253;-65
2022/09/30 03:23:22;;;;;;;23.57;18.37;;;;;;;17.18;100.00;-18229.69;5078303;28;20191;-64
2022/09/30 03:26:00;;;;;;;43.87;23.30;;;;;;;17.12;100.00;-18228.25;5078533;28;20195;-63
2022/09/30 03:28:33;;;;;;;57.20;24.33;;;;;;;17.03;100.00;-18226.22;5090544;28;20618;-64
2022/09/30 03:31:05;;;;;;;42.77;20.10;;;;;;;16.73;100.00;-18219.16;5098354;28;20187;-63
2022/09/30 03:33:42;;;;;;;49.30;22.27;;;;;;;16.82;100.00;-18221.19;5098102;28;20199;-64
2022/09/30 03:36:20;;;;;;;52.53;27.53;;;;;;;16.78;100.00;-18220.34;5098568;28;20553;-64
2022/09/30 03:38:52;;;;;;;65.00;27.13;;;;;;;16.65;100.00;-18217.25;5098147;28;20187;-64
2022/09/30 03:41:26;;;;;;;43.73;22.47;;;;;;;16.53;100.00;-18214.25;5098102;28;20295;-64
2022/09/30 03:44:01;;;;;;;37.27;21.00;;;;;;;16.55;100.00;-18214.84;5098265;28;20645;-64
2022/09/30 03:46:34;;;;;;;41.03;21.30;;;;;;;16.60;100.00;-18215.91;5097826;28;20190;-64
2022/09/30 03:49:05;;;;;;;45.53;23.67;;;;;;;16.74;100.00;-18219.28;5098244;28;20211;-64
2022/09/30 03:51:37;;;;;;;28.37;21.10;;;;;;;16.39;100.00;-18211.00;5098372;28;20641;-64
2022/09/30 03:54:07;;;;;;;39.47;22.03;;;;;;;16.52;100.00;-18214.00;5098169;28;20184;-63
2022/09/30 03:56:34;;;;;;;47.83;24.00;;;;;;;16.57;100.00;-18215.31;5098304;28;20249;-63
2022/09/30 03:59:01;;;;;;;48.40;23.80;;;;;;;16.69;100.00;-18218.19;5097783;28;20192;-65
2022/09/30 04:01:28;;;;;;;87.43;35.47;;;;;;;16.61;100.00;-18216.16;5094662;28;20208;-63
2022/09/30 04:03:55;;;;;;;64.97;32.80;;;;;;;16.56;100.00;-18215.06;5095043;28;20631;-64
2022/09/30 04:06:24;;;;;;;57.20;35.70;;;;;;;16.69;100.00;-18218.19;5095336;28;20214;-64
2022/09/30 04:08:53;;;;;;;66.97;37.03;;;;;;;16.71;100.00;-18218.69;5095103;28;20191;-64
2022/09/30 04:11:20;;;;;;;59.60;37.80;;;;;;;16.69;100.00;-18218.06;5095347;28;20180;-63
2022/09/30 04:13:48;;;;;;;66.67;38.30;;;;;;;16.79;100.00;-18220.59;5094563;28;20184;-64
2022/09/30 04:16:14;;;;;;;57.50;37.50;;;;;;;16.81;100.00;-18221.06;5095656;28;20630;-65
2022/09/30 04:18:41;;;;;;;59.27;36.47;;;;;;;16.75;100.00;-18219.53;5094266;28;20283;-65
2022/09/30 04:21:09;;;;;;;51.77;35.70;;;;;;;16.83;100.00;-18221.56;5094713;28;20204;-64
2022/09/30 04:23:37;;;;;;;53.57;36.63;;;;;;;16.86;100.00;-18222.28;5095011;28;20187;-63
2022/09/30 04:26:07;;;;;;;62.63;35.73;;;;;;;16.89;100.00;-18223.00;5094102;28;20190;-64
2022/09/30 04:28:34;;;;;;;50.10;32.97;;;;;;;16.68;100.00;-18217.84;5094652;28;20562;-66
2022/09/30 04:31:02;;;;;;;52.67;31.03;;;;;;;16.66;100.00;-18217.47;5094112;28;20192;-64
2022/09/30 04:33:29;;;;;;;51.03;29.60;;;;;;;16.85;100.00;-18222.03;5094371;28;20196;-64
2022/09/30 04:35:56;;;;;;;44.30;28.07;;;;;;;16.91;100.00;-18223.34;5076121;28;20188;-65
2022/09/30 04:38:24;;;;;;;47.07;27.10;;;;;;;17.07;100.00;-18227.19;5094465;28;20211;-63
2022/09/30 04:40:51;;;;;;;46.80;25.70;;;;;;;17.23;100.00;-18231.00;5094156;28;20552;-64
2022/09/30 04:43:21;;;;;;;52.00;26.57;;;;;;;17.39;100.00;-18234.72;5094456;28;20558;-65
2022/09/30 04:45:48;;;;;;;51.37;25.17;;;;;;;17.57;100.00;-18239.03;5094236;28;20637;-64
2022/09/30 04:48:16;;;;;;;51.03;25.67;;;;;;;18.36;100.00;-18257.69;5095207;28;20275;-64
2022/09/30 04:50:44;;;;;;;39.83;22.20;;;;;;;18.80;100.00;-18268.09;5076437;28;20705;-65
2022/09/30 04:53:13;;;;;;;56.83;24.43;;;;;;;19.30;100.00;-18279.94;5093980;28;20271;-68
2022/09/30 04:55:40;;;;;;;76.63;25.57;;;;;;;19.46;100.00;-13443.81;5093895;28;20184;-65
2022/09/30 04:58:07;;;;;;;72.47;24.87;;;;;;;19.89;100.00;-6984.31;5093971;28;20683;-65
2022/09/30 05:00:36;;;;;;;49.50;20.63;;;;;;;19.97;100.00;-2774.22;5093627;28;20192;-64
2022/09/30 05:03:03;;;;;;;44.73;18.03;;;;;;;20.25;100.00;2742.81;5093602;28;20218;-64
2022/09/30 05:05:31;;;;;;;43.10;18.10;;;;;;;20.35;100.00;8596.03;5094003;28;20597;-65
2022/09/30 05:08:00;;;;;;;33.30;18.00;;;;;;;20.89;100.00;13169.50;5075676;28;20180;-65
2022/09/30 05:10:28;;;;;;;39.00;16.97;;;;;;;20.83;100.00;19369.94;5093316;28;20309;-64
2022/09/30 05:12:56;;;;;;;46.17;16.17;;;;;;;20.83;100.00;21657.81;5092841;28;20184;-65
2022/09/30 05:15:23;;;;;;;47.47;17.53;;;;;;;21.35;100.00;22660.59;5094261;28;20184;-65
2022/09/30 05:17:51;;;;;;;32.70;16.57;;;;;;;21.51;100.00;47312.91;5094375;28;20659;-64
2022/09/30 05:20:19;;;;;;;35.22;14.52;;;;;;;21.95;100.00;68871.25;5093678;28;20188;-65
2022/09/30 05:22:46;;;;;;;25.90;14.85;;;;;;;22.44;100.00;96630.03;5093380;28;20204;-64
2022/09/30 05:25:13;;;;;;;32.35;14.55;;;;;;;23.10;100.00;141980.69;5093745;28;20216;-65
2022/09/30 05:27:40;;;;;;;61.88;16.48;;;;;;;23.97;100.00;152067.03;5093108;28;20192;-64
2022/09/30 05:30:08;;;;;;;47.22;14.80;;;;;;;24.37;100.00;152166.63;5093642;28;20577;-64
2022/09/30 05:32:35;;;;;;;137.05;28.75;;;;;;;24.32;100.00;152155.13;5093300;28;20184;-64
2022/09/30 05:35:04;;;;;;;106.38;21.55;;;;;;;24.23;100.00;152132.16;5093133;28;20207;-65
2022/09/30 05:37:31;;;;;;;82.28;18.75;;;;;;;24.07;100.00;152091.25;5093322;28;20188;-65
2022/09/30 05:39:58;;;;;;;49.80;15.68;;;;;;;24.08;100.00;152095.09;5092442;28;20188;-64
2022/09/30 05:42:25;;;;;;;57.17;16.13;;;;;;;23.98;100.00;152069.53;5074507;28;20204;-58
2022/09/30 05:44:52;;;;;;;102.63;59.90;;;;;;;23.99;100.00;152072.13;5092562;28;20180;-57
2022/09/30 05:47:19;;;;;;;139.75;69.03;;;;;;;24.08;100.00;152093.81;5092581;28;20184;-62
2022/09/30 05:49:46;;;;;;;50.80;14.05;;;;;;;24.16;100.00;152113.00;5092484;28;20191;-65
2022/09/30 05:52:14;;;;;;;36.67;15.45;;;;;;;23.69;100.00;151995.50;5092660;28;20619;-63
2022/09/30 05:54:41;;;;;;;33.67;16.33;;;;;;;23.66;100.00;151987.88;5093059;28;20191;-64
2022/09/30 05:57:08;;;;;;;35.05;16.85;;;;;;;23.47;100.00;151939.34;5093027;28;20184;-64
2022/09/30 05:59:36;;;;;;;24.75;17.67;;;;;;;23.58;100.00;151967.47;5092873;28;20176;-65
2022/09/30 06:02:04;;;;;;;41.17;17.02;;;;;;;23.93;100.00;152055.53;5074228;28;20211;-64
2022/09/30 06:04:31;;;;;;;63.45;40.70;;;;;;;24.48;100.00;152196.03;5092365;28;20184;-67
2022/09/30 06:06:58;;;;;;;34.83;19.55;;;;;;;24.79;100.00;152272.63;5092476;28;20180;-68
2022/09/30 06:09:26;;;;;;;27.10;16.38;;;;;;;25.43;100.00;152434.91;5093002;28;20187;-65
2022/09/30 06:11:54;;;;;;;32.00;17.42;;;;;;;26.09;100.00;152601.13;5092887;28;20188;-63
2022/09/30 06:14:21;;;;;;;27.55;17.35;;;;;;;26.45;100.00;152693.22;5092367;28;20234;-65
2022/09/30 06:16:48;;;;;;;37.22;17.40;;;;;;;26.78;100.00;152776.31;5092170;28;20216;-64
2022/09/30 06:19:15;;;;;;;28.75;16.95;;;;;;;26.90;100.00;152805.81;5091831;28;20245;-64
2022/09/30 06:21:42;;;;;;;42.15;17.10;;;;;;;27.05;100.00;152844.19;5093019;28;20571;-64
2022/09/30 06:24:12;;;;;;;25.52;17.65;;;;;;;27.19;100.00;152881.28;5091839;28;20212;-67
2022/09/30 06:26:41;;;;;;;20.25;15.95;;;;;;;27.03;100.00;152840.31;5075217;28;20188;-62
2022/09/30 06:29:08;;;;;;;24.92;15.63;;;;;;;26.89;100.00;152803.25;5092165;28;20189;-63
2022/09/30 06:31:35;;;;;;;22.38;16.17;;;;;;;27.01;100.00;152833.94;5092948;28;20195;-63
2022/09/30 06:34:01;;;;;;;32.65;17.50;;;;;;;27.01;100.00;152835.22;5093643;28;20291;-63
2022/09/30 06:36:30;;;;;;;23.83;14.98;;;;;;;26.76;100.00;152771.22;5092709;28;20184;-64
2022/09/30 06:38:58;;;;;;;18.98;14.00;;;;;;;26.66;100.00;152745.63;5092070;28;20238;-63
2022/09/30 06:41:42;;;;;;;19.77;14.70;;;;;;;26.91;100.00;152808.34;5092093;28;20184;-62
2022/09/30 06:44:16;;;;;;;52.03;17.17;;;;;;;27.00;100.00;152831.38;5091632;28;20196;-63
2022/09/30 06:46:54;;;;;;;17.13;13.15;;;;;;;27.35;100.00;152919.66;5092475;28;20195;-62
2022/09/30 06:49:22;;;;;;;19.92;13.38;;;;;;;27.15;100.00;152869.78;5041442;28;20201;-63
2022/09/30 06:51:50;;;;;;;21.00;13.43;;;;;;;27.52;100.00;152964.50;5092215;28;20328;-62
2022/09/30 06:54:19;;;;;;;26.88;13.18;;;;;;;27.49;100.00;152956.81;5091772;28;20188;-64
2022/09/30 06:56:47;;;;;;;26.83;11.95;;;;;;;27.83;100.00;153041.28;5091805;28;20279;-63
2022/09/30 06:59:15;;;;;;;26.15;12.15;;;;;;;27.99;100.00;153083.50;5092001;28;20203;-63
2022/09/30 07:01:43;;;;;;;13.93;11.35;;;;;;;28.35;100.00;153173.13;5091892;28;20191;-63
2022/09/30 07:04:10;;;;;;;17.92;10.57;;;;;;;28.75;100.00;153275.63;5108408;28;20179;-63
2022/09/30 07:06:38;;;;;;;13.68;10.00;;;;;;;28.90;100.00;153312.72;5112383;28;20557;-63
2022/09/30 07:09:05;;;;;;;31.92;11.18;;;;;;;28.91;100.00;153315.31;5112463;28;20625;-64
2022/09/30 07:11:32;;;;;;;21.95;10.50;;;;;;;28.97;100.00;153330.69;5112381;28;20237;-63
2022/09/30 07:14:00;;;;;;;27.60;10.57;;;;;;;29.07;100.00;153355.03;5111903;28;20193;-63
2022/09/30 07:16:32;;;;;;;26.45;9.27;;;;;;;29.57;100.00;153481.88;5094486;28;20191;-62
2022/09/30 07:19:00;;;;;;;27.52;10.45;;;;;;;30.21;100.00;153645.97;5111746;28;20231;-63
2022/09/30 07:21:29;;;;;;;17.88;9.95;;;;;;;30.49;100.00;153716.47;5111649;28;20187;-62
2022/09/30 07:23:57;;;;;;;20.15;9.95;;;;;;;30.86;100.00;153810.06;5111626;28;20199;-63
2022/09/30 07:26:25;;;;;;;27.00;9.82;;;;;;;31.14;100.00;153881.94;5112019;28;20286;-63
2022/09/30 07:28:53;;;;;;;11.07;9.40;;;;;;;31.14;100.00;153881.94;5111581;28;20180;-62
2022/09/30 07:31:22;;;;;;;25.33;10.15;;;;;;;31.60;100.00;153997.41;5111592;28;20218;-62
2022/09/30 07:33:51;;;;;;;18.00;9.60;;;;;;;31.23;99.77;153903.75;5111509;28;20231;-62
2022/09/30 07:36:22;;;;;;;12.45;9.65;;;;;;;30.88;100.00;153815.19;5115061;28;20183;-63
2022/09/30 07:38:50;;;;;;;9.95;7.60;;;;;;;29.48;100.00;153461.41;5115253;28;20197;-63
2022/09/30 07:41:20;;;;;;;15.52;8.50;;;;;;;29.26;100.00;153404.97;5115445;28;20184;-62
2022/09/30 07:43:47;;;;;;;18.10;8.40;;;;;;;29.56;100.00;153479.31;5115023;28;20233;-64
2022/09/30 07:46:21;;;;;;;10.77;8.77;;;;;;;29.74;100.00;153525.44;5097046;28;20275;-63
2022/09/30 07:48:51;;;;;;;22.13;9.02;;;;;;;29.65;100.00;153502.38;5115378;28;20232;-63
2022/09/30 07:51:20;;;;;;;13.32;6.43;;;;;;;28.68;100.00;153256.38;5115211;28;20265;-63
2022/09/30 07:53:49;;;;;;;11.75;6.72;;;;;;;28.43;100.00;153194.88;5114792;28;20175;-63
2022/09/30 07:56:23;;;;;;;13.38;8.70;;;;;;;28.40;100.00;153187.22;5097293;28;20193;-63
2022/09/30 07:58:54;;;;;;;15.70;8.55;;;;;;;28.69;100.00;153260.19;5115177;28;20188;-63
2022/09/30 08:01:21;;;;;;;13.43;8.18;;;;;;;28.84;100.00;153298.69;5115033;28;20202;-62
2022/09/30 08:03:52;;;;;;;15.70;8.75;;;;;;;28.96;100.00;153328.13;5114617;28;20204;-63
2022/09/30 08:06:20;;;;;;;15.10;8.35;;;;;;;29.41;100.00;153443.44;5115104;28;20183;-62
2022/09/30 08:08:50;;;;;;;19.00;10.55;;;;;;;29.92;100.00;153571.59;5114981;28;20314;-63
2022/09/30 08:11:17;;;;;;;17.35;9.13;;;;;;;30.69;100.00;153766.47;5114843;28;20573;-62
2022/09/30 08:13:44;;;;;;;19.75;10.00;;;;;;;30.68;99.07;153763.94;5114447;28;20629;-62
2022/09/30 08:16:10;;;;;;;13.25;8.73;;;;;;;31.13;94.35;153879.34;5114786;28;20653;-64
2022/09/30 08:18:37;;;;;;;16.60;10.07;;;;;;;31.29;98.62;153920.38;5114532;28;20223;-64
2022/09/30 08:21:06;;;;;;;16.10;11.93;;;;;;;31.75;96.19;154035.84;5115152;28;20209;-62
2022/09/30 08:23:33;;;;;;;27.90;11.80;;;;;;;31.77;95.02;154041.00;5114127;28;20217;-62
2022/09/30 08:26:02;;;;;;;14.63;10.75;;;;;;;32.03;91.99;154106.44;5114293;28;20531;-63
2022/09/30 08:28:31;;;;;;;25.27;10.68;;;;;;;31.99;92.15;154097.47;5114254;28;20194;-63
2022/09/30 08:31:04;;;;;;;10.15;9.10;;;;;;;32.39;87.17;154197.56;5114589;28;20661;-63
2022/09/30 08:33:32;;;;;;;13.20;9.25;;;;;;;32.16;88.48;154141.16;5115170;28;20653;-62
2022/09/30 08:36:02;;;;;;;14.07;8.43;;;;;;;32.24;88.39;154159.09;5114715;28;20187;-63
2022/09/30 08:38:31;;;;;;;18.90;7.88;;;;;;;32.64;83.62;154261.78;5114346;28;20646;-63
2022/09/30 08:41:11;;;;;;;10.00;6.55;;;;;;;32.68;80.21;154270.75;5114495;28;20180;-63
2022/09/30 08:43:47;;;;;;;10.98;6.35;;;;;;;32.26;84.65;154164.19;5114373;28;20757;-64
2022/09/30 08:46:25;;;;;;;10.20;6.38;;;;;;;32.09;85.05;154121.84;5113304;28;20194;-63
2022/09/30 08:49:01;;;;;;;6.55;5.82;;;;;;;32.58;78.25;154246.34;5114215;28;20209;-62
2022/09/30 08:51:34;;;;;;;5.80;5.40;;;;;;;32.56;78.11;154242.50;5114164;28;20499;-62
2022/09/30 08:54:12;;;;;;;5.88;5.57;;;;;;;32.76;77.26;154291.34;5113934;28;20192;-66
2022/09/30 08:56:39;;;;;;;6.63;5.30;;;;;;;33.40;73.65;154455.66;5113639;28;20183;-64
2022/09/30 08:59:15;;;;;;;4.63;4.32;;;;;;;32.83;75.06;154309.28;5114019;28;20266;-63
2022/09/30 09:01:47;;;;;;;8.02;5.30;;;;;;;32.97;75.85;154346.47;5113949;28;20619;-62
2022/09/30 09:04:15;;;;;;;6.30;4.40;;;;;;;32.85;75.31;154315.69;5113288;28;20203;-63
2022/09/30 09:06:53;;;;;;;5.15;4.78;;;;;;;32.68;76.41;154272.03;5113698;28;20530;-64
2022/09/30 09:09:48;;;;;;;5.57;4.93;;;;;;;32.37;79.48;154193.75;5113680;28;20266;-63
2022/09/30 09:12:27;;;;;;;5.78;4.97;;;;;;;31.54;85.04;153983.28;5113438;28;20187;-63
2022/09/30 09:15:11;;;;;;;5.13;4.78;;;;;;;32.06;81.92;154114.13;5113606;28;20510;-63
2022/09/30 09:17:55;;;;;;;12.10;5.63;;;;;;;32.85;77.21;154315.69;5113549;28;20659;-62
2022/09/30 09:20:28;;;;;;;5.47;4.75;;;;;;;33.18;75.11;154397.91;5113282;28;20187;-63
2022/09/30 09:22:54;;;;;;;9.50;5.68;;;;;;;33.43;75.15;154462.13;5113292;28;20231;-63
2022/09/30 09:25:27;;;;;;;8.68;5.68;;;;;;;33.39;75.90;154451.84;5113034;28;20189;-63
2022/09/30 09:27:59;;;;;;;6.45;5.50;;;;;;;33.70;72.86;154531.47;5113315;28;20179;-63
2022/09/30 09:30:32;;;;;;;5.68;5.30;;;;;;;33.81;73.07;154558.47;5114413;28;20199;-63
2022/09/30 09:33:05;;;;;;;6.78;6.18;;;;;;;34.09;72.75;154630.38;5113257;28;20626;-63
2022/09/30 09:35:41;;;;;;;6.55;5.30;;;;;;;34.51;69.97;154735.75;5113042;28;20183;-63
2022/09/30 09:38:25;;;;;;;7.30;6.20;;;;;;;34.60;67.96;154758.91;5112792;28;20553;-63
2022/09/30 09:41:08;;;;;;;10.35;5.10;;;;;;;34.18;69.77;154652.28;5113046;28;20223;-63
2022/09/30 09:43:49;;;;;;;5.90;5.38;;;;;;;34.74;66.61;154796.22;5112707;28;20239;-63
2022/09/30 09:46:24;;;;;;;6.20;5.53;;;;;;;34.51;69.28;154735.75;5096689;28;20650;-63
2022/09/30 09:49:27;;;;;;;8.13;5.50;;;;;;;33.92;71.86;154588.00;5112555;28;20189;-63
2022/09/30 09:52:10;;;;;;;5.90;5.07;;;;;;;33.62;73.68;154510.88;5096743;28;20279;-63
2022/09/30 09:54:41;;;;;;;5.63;5.32;;;;;;;33.13;76.04;154386.31;5112314;28;20186;-63
2022/09/30 09:57:11;;;;;;;5.90;5.00;;;;;;;33.38;77.24;154449.25;5112320;28;20187;-63
2022/09/30 09:59:53;;;;;;;6.95;5.35;;;;;;;33.75;76.23;154544.31;5112716;28;20190;-63
2022/09/30 10:02:25;;;;;;;5.43;5.03;;;;;;;33.67;72.66;154522.50;5112323;28;20179;-63
2022/09/30 10:04:58;;;;;;;5.47;5.07;;;;;;;33.63;75.43;154513.47;5094215;28;20211;-63
2022/09/30 10:07:28;;;;;;;5.10;4.75;;;;;;;34.79;68.20;154809.09;5112585;28;20260;-63
2022/09/30 10:10:18;;;;;;;5.60;5.05;;;;;;;35.06;63.59;154875.88;5112558;28;20193;-63
2022/09/30 10:12:46;;;;;;;5.03;4.80;;;;;;;35.38;62.40;154958.22;5106996;28;20211;-62
2022/09/30 10:15:25;;;;;;;6.22;5.60;;;;;;;35.50;62.61;154987.75;5112035;28;20188;-63
2022/09/30 10:17:59;;;;;;;10.57;5.88;;;;;;;35.34;64.03;154947.94;5111816;28;20303;-62
2022/09/30 10:20:32;;;;;;;6.07;5.63;;;;;;;35.08;63.90;154881.03;5091798;28;20187;-62
2022/09/30 10:23:09;;;;;;;5.80;5.32;;;;;;;35.63;61.23;155021.19;5091608;28;20230;-63
2022/09/30 10:25:36;;;;;;;5.63;5.10;;;;;;;36.45;57.60;155230.84;5091795;28;20701;-63
2022/09/30 10:28:22;;;;;;;5.45;5.05;;;;;;;36.69;57.34;155291.38;5091615;28;20207;-63
2022/09/30 10:30:53;;;;;;;12.15;7.30;;;;;;;36.41;63.88;155220.56;5091674;28;20188;-63
2022/09/30 10:33:24;;;;;;;7.57;6.68;;;;;;;35.71;66.88;155043.09;5091493;28;20186;-63
2022/09/30 10:35:55;;;;;;;8.23;6.63;;;;;;;34.89;70.69;154833.47;5091275;28;20298;-62
2022/09/30 10:38:25;;;;;;;6.25;6.05;;;;;;;34.57;71.42;154752.50;5091561;28;20200;-63
2022/09/30 10:40:52;;;;;;;9.73;6.80;;;;;;;34.42;72.94;154715.22;5091507;28;20226;-63
2022/09/30 10:43:28;;;;;;;6.68;5.18;;;;;;;34.54;68.71;154743.50;5091311;28;20298;-63
2022/09/30 10:45:58;;;;;;;6.40;6.00;;;;;;;34.48;68.90;154729.34;5091548;28;20634;-62
2022/09/30 10:48:30;;;;;;;6.68;6.28;;;;;;;34.04;72.43;154616.22;5091794;28;20192;-63
2022/09/30 10:50:57;;;;;;;7.05;6.32;;;;;;;35.09;68.38;154883.63;5091338;28;20186;-63
2022/09/30 10:53:28;;;;;;;8.60;6.07;;;;;;;36.62;60.28;155274.63;5091640;28;20288;-63
2022/09/30 10:55:56;;;;;;;7.00;6.35;;;;;;;37.28;57.81;155441.94;5091729;28;20200;-65
2022/09/30 10:58:30;;;;;;;6.07;5.68;;;;;;;36.99;57.02;155367.28;5091638;28;20634;-64
2022/09/30 11:01:04;;;;;;;6.88;6.35;;;;;;;36.53;60.07;155251.47;5091665;28;20626;-64
2022/09/30 11:03:38;;;;;;;6.75;6.32;;;;;;;34.66;68.58;154774.38;5091365;28;20203;-64
2022/09/30 11:06:07;;;;;;;8.00;7.10;;;;;;;32.79;78.99;154299.03;5091635;28;20662;-63
2022/09/30 11:08:41;;;;;;;6.22;5.75;;;;;;;30.48;93.86;153712.63;5073688;28;20631;-62
2022/09/30 11:11:13;;;;;;;6.68;5.88;;;;;;;29.77;98.39;153534.41;5095325;28;20187;-63
2022/09/30 11:13:47;;;;;;;7.60;6.75;;;;;;;29.82;100.00;153547.22;5095693;28;20688;-63
2022/09/30 11:16:24;;;;;;;8.45;7.60;;;;;;;29.06;100.00;153353.75;5095142;28;20192;-63
2022/09/30 11:18:57;;;;;;;6.60;6.15;;;;;;;28.44;100.00;153197.47;5095007;28;20235;-64
2022/09/30 11:21:30;;;;;;;10.63;8.07;;;;;;;28.30;100.00;153161.66;5095326;28;20242;-64
2022/09/30 11:24:03;;;;;;;8.45;7.70;;;;;;;27.84;100.00;153045.09;5095126;28;20684;-63
2022/09/30 11:26:41;;;;;;;7.95;7.03;;;;;;;27.89;100.00;153057.88;5095347;28;20298;-63